Aérodrome :
LOGIN :

S'inscrire | Disclaimer

   EN    FR    IT 

 










Légende :    VFR   VFR Marginal   IFR   IFR Intensif   IFR Très Intensif
Visi : 
Plafond : 
>= 8 km
>= 3000ft
5 à 8 km
1000 à 3000 ft
1500m à 5 km
500 à 1000 ft
800 à 1500m
200 à 500 ft
< 800m
< 200 ft
Symboles :   Orages  Brouillard  Fortes neiges  Fortes précipitations  Vent > 20 kt
SIGMETs :   Divers  Orages  Givrage  Turbulence  Onde Orograph.  Cendres Volcan.






- Altitude de l'aérodrome : 299 ft
- Code IATA : EDM


LFRI - La Roche Sur Yon - Les Ajoncs

DERNIER METAR :
  • 071630Z AUTO 33007KT CAVOK 19/08 Q1021 NOSIG

METARs EXPIRÉS :
  • 071600Z AUTO 33006KT CAVOK 20/08 Q1021 NOSIG
  • 071530Z AUTO 35005KT CAVOK 20/08 Q1021 NOSIG
  • 071500Z AUTO 34004KT 260V030 CAVOK 20/07 Q1022 NOSIG
  • 071430Z AUTO 33006KT 300V010 CAVOK 20/07 Q1022 NOSIG
  • 071400Z AUTO 32004KT 250V020 CAVOK 20/07 Q1022 NOSIG

TAF TAF LFRI
Valide du 07 à 12h jusqu'au 08 à 12h UTC


071100Z 0712/0812 05004KT CAVOK
BECMG 0715/0717 34008KT
BECMG 0723/0801 3000 BR
TEMPO 0801/0806 0400 FG VV///
TEMPO 0806/0808 BKN003



MET'MAP, la Météo Aéronautique d'un coup d'oeil ! - Copyright ORBIFLY Décembre 2007 - Disclaimer

ORBIFLY MET'MAP TEAM :

Programmation & Développement : Alexandra Zaïnal
Sur une idée originale de : Baudouin d'Aumeries
Soutien technique & logistique : Manuel Goepfert
Assistance : Marc-Olivier Méhu




SOURCES & CREDITS :

   NOAA